Time;durP1;ratioP1;P1;durP2;ratioP2;P2;SDS_P1;SDS_P2;PMS_P1;PMS_P2;Temp;Humidity;BMP_temperature;BMP_pressure;BME280_temperature;BME280_humidity;BME280_pressure;Samples;Min_cycle;Max_cycle;Signal;HPM_P1;HPM_P2
2022/04/08 00:02:03;;;;;;;280.67;35.17;;;;;;;;;;5031597;28;20403;-51
2022/04/08 00:04:32;;;;;;;263.52;29.83;;;;;;;;;;5035943;28;20025;-49
2022/04/08 00:07:00;;;;;;;278.17;30.83;;;;;;;;;;5037161;28;20037;-54
2022/04/08 00:09:27;;;;;;;255.57;28.67;;;;;;;;;;5030868;28;20033;-55
2022/04/08 00:11:55;;;;;;;250.90;28.58;;;;;;;;;;5037584;28;20522;-50
2022/04/08 00:14:22;;;;;;;267.15;31.05;;;;;;;;;;5031642;28;20037;-52
2022/04/08 00:16:49;;;;;;;268.45;31.08;;;;;;;;;;5031683;28;20029;-51
2022/04/08 00:19:16;;;;;;;227.70;29.30;;;;;;;;;;5031917;28;20391;-50
2022/04/08 00:21:43;;;;;;;202.18;25.58;;;;;;;;;;5031710;28;20386;-51
2022/04/08 00:24:10;;;;;;;212.63;27.95;;;;;;;;;;5031292;28;20041;-49
2022/04/08 00:26:37;;;;;;;215.02;26.95;;;;;;;;;;5031504;28;20049;-49
2022/04/08 00:29:04;;;;;;;216.73;25.52;;;;;;;;;;5031667;28;20033;-49
2022/04/08 00:31:31;;;;;;;170.43;21.08;;;;;;;;;;5031057;28;20028;-48
2022/04/08 00:33:58;;;;;;;165.55;21.35;;;;;;;;;;5031532;28;20648;-44
2022/04/08 00:36:25;;;;;;;135.55;19.50;;;;;;;;;;5031028;28;20391;-44
2022/04/08 00:38:52;;;;;;;114.93;15.25;;;;;;;;;;5031155;28;20468;-47
2022/04/08 00:41:19;;;;;;;115.15;15.27;;;;;;;;;;5033719;28;20018;-47
2022/04/08 00:43:46;;;;;;;107.05;15.77;;;;;;;;;;5031084;28;20025;-48
2022/04/08 00:46:13;;;;;;;129.65;17.98;;;;;;;;;;5031004;28;20021;-48
2022/04/08 00:48:40;;;;;;;109.35;14.65;;;;;;;;;;5031577;28;20124;-47
2022/04/08 00:51:07;;;;;;;110.22;16.17;;;;;;;;;;5031248;28;20064;-46
2022/04/08 00:53:37;;;;;;;97.38;14.15;;;;;;;;;;5030965;28;20029;-48
2022/04/08 00:56:05;;;;;;;80.40;12.82;;;;;;;;;;5031432;28;20038;-46
2022/04/08 00:58:32;;;;;;;66.72;9.55;;;;;;;;;;5032043;28;20029;-45
2022/04/08 01:00:59;;;;;;;70.65;9.00;;;;;;;;;;5030985;28;20096;-45
2022/04/08 01:03:26;;;;;;;55.35;7.97;;;;;;;;;;5027644;28;20022;-45
2022/04/08 01:05:53;;;;;;;55.85;7.85;;;;;;;;;;5023878;28;20033;-44
2022/04/08 01:08:21;;;;;;;58.05;7.68;;;;;;;;;;5032270;28;20509;-43
2022/04/08 01:10:49;;;;;;;39.00;4.45;;;;;;;;;;5035864;28;20033;-40
2022/04/08 01:13:16;;;;;;;35.75;3.92;;;;;;;;;;5034181;28;20025;-40
2022/04/08 01:15:43;;;;;;;20.15;2.80;;;;;;;;;;5036229;28;20027;-40
2022/04/08 01:18:10;;;;;;;28.10;3.33;;;;;;;;;;5035168;28;20029;-40
2022/04/08 01:20:37;;;;;;;25.75;2.78;;;;;;;;;;5042558;28;20037;-40
2022/04/08 01:23:05;;;;;;;15.93;2.83;;;;;;;;;;5043291;28;20029;-41
2022/04/08 01:25:32;;;;;;;33.55;3.30;;;;;;;;;;5041869;28;20065;-42
2022/04/08 01:27:59;;;;;;;15.90;2.15;;;;;;;;;;5037330;28;20541;-40
2022/04/08 01:30:26;;;;;;;19.70;2.13;;;;;;;;;;5037571;28;20021;-41
2022/04/08 01:32:53;;;;;;;18.70;2.10;;;;;;;;;;5038527;28;20059;-41
2022/04/08 01:35:20;;;;;;;24.13;1.85;;;;;;;;;;5022323;28;20040;-41
2022/04/08 01:37:47;;;;;;;10.75;1.77;;;;;;;;;;5035230;28;20055;-41
2022/04/08 01:40:14;;;;;;;17.92;1.98;;;;;;;;;;5035134;28;20032;-41
2022/04/08 01:42:41;;;;;;;9.88;1.83;;;;;;;;;;5022268;28;20064;-42
2022/04/08 01:45:09;;;;;;;12.50;1.85;;;;;;;;;;5035179;28;20112;-41
2022/04/08 01:47:36;;;;;;;23.95;2.53;;;;;;;;;;5039250;28;20026;-41
2022/04/08 01:50:04;;;;;;;15.23;2.20;;;;;;;;;;5036833;28;20087;-41
2022/04/08 01:52:31;;;;;;;32.85;3.63;;;;;;;;;;5027368;28;20026;-41
2022/04/08 01:54:58;;;;;;;12.88;1.77;;;;;;;;;;5033483;28;20038;-41
2022/04/08 01:57:25;;;;;;;25.58;2.83;;;;;;;;;;5033562;28;20087;-48
2022/04/08 01:59:53;;;;;;;19.55;2.35;;;;;;;;;;5034279;28;20056;-48
2022/04/08 02:02:20;;;;;;;14.10;2.17;;;;;;;;;;5034146;28;20026;-48
2022/04/08 02:04:47;;;;;;;13.80;1.52;;;;;;;;;;5033445;28;20041;-48
2022/04/08 02:07:14;;;;;;;21.02;2.63;;;;;;;;;;5034001;28;20030;-49
2022/04/08 02:09:41;;;;;;;12.60;1.90;;;;;;;;;;5034129;28;20037;-47
2022/04/08 02:12:08;;;;;;;19.10;2.08;;;;;;;;;;5034337;28;20029;-48
2022/04/08 02:14:35;;;;;;;12.02;1.80;;;;;;;;;;5033085;28;20065;-48
2022/04/08 02:17:02;;;;;;;10.63;1.92;;;;;;;;;;5033983;28;20034;-48
2022/04/08 02:19:29;;;;;;;9.20;1.30;;;;;;;;;;5033865;28;20445;-48
2022/04/08 02:21:58;;;;;;;17.23;1.95;;;;;;;;;;5033686;28;20483;-48
2022/04/08 02:24:25;;;;;;;12.55;1.50;;;;;;;;;;5033844;28;20064;-48
2022/04/08 02:26:52;;;;;;;10.07;1.65;;;;;;;;;;5033245;28;20026;-47
2022/04/08 02:29:19;;;;;;;10.15;1.45;;;;;;;;;;5033730;28;20083;-50
2022/04/08 02:31:46;;;;;;;10.68;1.50;;;;;;;;;;5032654;28;20026;-48
2022/04/08 02:34:13;;;;;;;11.27;1.77;;;;;;;;;;5033614;28;20052;-48
2022/04/08 02:36:41;;;;;;;13.07;1.70;;;;;;;;;;5033244;28;20058;-47
2022/04/08 02:39:08;;;;;;;7.72;1.60;;;;;;;;;;5033641;28;20057;-48
2022/04/08 02:41:35;;;;;;;5.97;1.42;;;;;;;;;;5033120;28;20033;-48
2022/04/08 02:44:02;;;;;;;7.63;1.40;;;;;;;;;;5033634;28;20022;-48
2022/04/08 02:46:29;;;;;;;11.63;1.90;;;;;;;;;;5032908;28;20025;-48
2022/04/08 02:48:56;;;;;;;6.65;1.60;;;;;;;;;;5033562;28;20395;-47
2022/04/08 02:51:23;;;;;;;8.93;1.70;;;;;;;;;;5032715;28;20391;-47
2022/04/08 02:53:50;;;;;;;7.82;1.40;;;;;;;;;;5032690;28;20056;-48
2022/04/08 02:56:17;;;;;;;7.15;1.50;;;;;;;;;;5032891;28;20087;-48
2022/04/08 02:58:44;;;;;;;10.57;1.80;;;;;;;;;;5033440;28;20025;-47
2022/04/08 03:01:10;;;;;;;7.97;1.40;;;;;;;;;;5033042;28;20079;-48
2022/04/08 03:03:37;;;;;;;5.68;1.25;;;;;;;;;;5029054;28;20464;-48
2022/04/08 03:06:04;;;;;;;3.97;1.00;;;;;;;;;;5035146;28;20026;-48
2022/04/08 03:08:31;;;;;;;6.85;1.38;;;;;;;;;;5034072;28;20107;-50
2022/04/08 03:10:58;;;;;;;5.68;1.58;;;;;;;;;;5037873;28;20021;-47
2022/04/08 03:13:25;;;;;;;5.80;1.40;;;;;;;;;;5035005;28;20034;-48
2022/04/08 03:15:53;;;;;;;8.65;1.35;;;;;;;;;;5036108;28;20528;-48
2022/04/08 03:18:20;;;;;;;6.53;1.30;;;;;;;;;;5038110;28;20021;-49
2022/04/08 03:20:47;;;;;;;8.82;1.42;;;;;;;;;;5035353;28;20054;-47
2022/04/08 03:23:14;;;;;;;5.68;1.42;;;;;;;;;;5033999;28;20021;-48
2022/04/08 03:25:41;;;;;;;8.07;1.52;;;;;;;;;;5035026;28;20079;-49
2022/04/08 03:28:11;;;;;;;6.03;1.40;;;;;;;;;;5035788;28;20391;-50
2022/04/08 03:30:40;;;;;;;5.18;1.20;;;;;;;;;;5037412;28;20048;-48
2022/04/08 03:33:08;;;;;;;4.32;1.20;;;;;;;;;;5036790;28;20034;-50
2022/04/08 03:35:35;;;;;;;3.85;1.33;;;;;;;;;;5033513;28;20094;-47
2022/04/08 03:38:02;;;;;;;5.18;1.30;;;;;;;;;;5030760;28;20539;-50
2022/04/08 03:40:29;;;;;;;6.20;1.33;;;;;;;;;;5036367;28;20029;-47
2022/04/08 03:42:56;;;;;;;9.18;1.10;;;;;;;;;;5034469;28;20030;-48
2022/04/08 03:45:24;;;;;;;5.10;1.27;;;;;;;;;;5036397;28;20079;-47
2022/04/08 03:47:51;;;;;;;5.70;1.35;;;;;;;;;;5032334;28;20048;-47
2022/04/08 03:50:18;;;;;;;6.80;1.38;;;;;;;;;;5036076;28;20033;-48
2022/04/08 03:52:45;;;;;;;8.15;1.67;;;;;;;;;;5034951;28;20038;-48
2022/04/08 03:55:12;;;;;;;6.72;1.45;;;;;;;;;;5032314;28;20485;-46
2022/04/08 03:57:39;;;;;;;6.60;1.20;;;;;;;;;;5035692;28;20041;-48
2022/04/08 04:00:08;;;;;;;4.03;1.13;;;;;;;;;;5033997;28;20025;-47
2022/04/08 04:02:38;;;;;;;3.08;1.27;;;;;;;;;;5036975;28;20029;-47
2022/04/08 04:05:05;;;;;;;3.85;1.20;;;;;;;;;;5035830;28;20030;-47
2022/04/08 04:07:35;;;;;;;6.43;1.30;;;;;;;;;;5042017;28;20060;-47
2022/04/08 04:10:02;;;;;;;6.45;1.35;;;;;;;;;;5051926;28;20021;-47
2022/04/08 04:12:29;;;;;;;5.35;1.02;;;;;;;;;;5051718;28;20025;-48
2022/04/08 04:14:56;;;;;;;2.80;0.90;;;;;;;;;;5052041;28;20035;-47
2022/04/08 04:17:27;;;;;;;4.57;1.10;;;;;;;;;;5051281;28;20025;-47
2022/04/08 04:19:54;;;;;;;6.90;1.30;;;;;;;;;;5052187;28;20025;-47
2022/04/08 04:22:21;;;;;;;4.13;1.55;;;;;;;;;;5051609;28;20021;-47
2022/04/08 04:24:47;;;;;;;7.07;1.40;;;;;;;;;;5051445;28;20531;-47
2022/04/08 04:27:14;;;;;;;6.50;1.42;;;;;;;;;;5035615;28;20021;-41
2022/04/08 04:29:41;;;;;;;10.00;1.40;;;;;;;;;;5014689;28;20041;-41
2022/04/08 04:32:09;;;;;;;11.57;1.25;;;;;;;;;;5030017;28;20033;-40
2022/04/08 04:34:38;;;;;;;6.47;1.25;;;;;;;;;;5031019;28;20399;-40
2022/04/08 04:37:10;;;;;;;4.60;1.58;;;;;;;;;;5027077;28;20490;-43
2022/04/08 04:39:38;;;;;;;4.32;1.45;;;;;;;;;;5023040;28;20104;-37
2022/04/08 04:42:07;;;;;;;8.98;1.13;;;;;;;;;;5031391;28;20025;-37
2022/04/08 04:44:34;;;;;;;2.40;1.00;;;;;;;;;;5031433;28;20108;-39
2022/04/08 04:47:02;;;;;;;3.67;1.00;;;;;;;;;;5030585;28;20048;-42
2022/04/08 04:49:29;;;;;;;5.22;1.40;;;;;;;;;;5031424;28;20021;-37
2022/04/08 04:51:56;;;;;;;6.50;1.27;;;;;;;;;;5031003;28;20423;-38
2022/04/08 04:54:22;;;;;;;4.30;0.90;;;;;;;;;;5030822;28;20071;-39
2022/04/08 04:56:50;;;;;;;4.60;1.08;;;;;;;;;;5031872;28;20096;-39
2022/04/08 04:59:16;;;;;;;3.80;1.10;;;;;;;;;;5031599;28;20029;-37
2022/04/08 05:01:43;;;;;;;5.28;1.10;;;;;;;;;;5030853;28;20099;-38
2022/04/08 05:04:10;;;;;;;4.97;1.10;;;;;;;;;;5031469;28;20059;-38
2022/04/08 05:06:37;;;;;;;6.03;1.13;;;;;;;;;;5030707;28;20069;-37
2022/04/08 05:09:05;;;;;;;5.63;0.93;;;;;;;;;;5031733;28;20056;-39
2022/04/08 05:11:32;;;;;;;5.53;0.98;;;;;;;;;;5030158;28;20052;-37
2022/04/08 05:14:00;;;;;;;2.38;1.10;;;;;;;;;;5031596;28;20033;-38
2022/04/08 05:16:27;;;;;;;3.70;1.10;;;;;;;;;;5031487;28;20124;-36
2022/04/08 05:18:54;;;;;;;4.63;1.00;;;;;;;;;;5030545;28;20495;-41
2022/04/08 05:21:21;;;;;;;2.72;1.00;;;;;;;;;;5031008;28;20057;-40
2022/04/08 05:23:48;;;;;;;6.40;1.08;;;;;;;;;;5029680;28;20029;-45
2022/04/08 05:26:16;;;;;;;10.20;1.25;;;;;;;;;;5029295;28;20110;-39
2022/04/08 05:28:43;;;;;;;6.82;1.23;;;;;;;;;;5030535;28;20112;-40
2022/04/08 05:31:10;;;;;;;4.65;1.02;;;;;;;;;;5031256;28;20030;-42
2022/04/08 05:33:36;;;;;;;7.53;1.25;;;;;;;;;;5029835;28;20049;-42
2022/04/08 05:36:04;;;;;;;4.65;1.40;;;;;;;;;;5031347;28;20037;-40
2022/04/08 05:38:31;;;;;;;8.95;1.42;;;;;;;;;;5030767;28;20129;-38
2022/04/08 05:40:58;;;;;;;14.50;1.50;;;;;;;;;;5030799;28;20112;-40
2022/04/08 05:43:24;;;;;;;5.18;1.27;;;;;;;;;;5027895;28;20032;-40
2022/04/08 05:45:52;;;;;;;7.45;0.90;;;;;;;;;;5030821;28;20048;-41
2022/04/08 05:48:19;;;;;;;7.18;1.08;;;;;;;;;;5047689;28;20041;-40
2022/04/08 05:50:46;;;;;;;2.15;0.82;;;;;;;;;;5051320;28;20478;-40
2022/04/08 05:53:13;;;;;;;2.80;1.08;;;;;;;;;;5050852;28;20036;-40
2022/04/08 05:55:40;;;;;;;10.75;1.10;;;;;;;;;;5049924;28;20090;-40
2022/04/08 05:58:07;;;;;;;6.80;1.10;;;;;;;;;;5050866;28;20109;-40
2022/04/08 06:00:35;;;;;;;5.63;1.35;;;;;;;;;;5051535;28;20028;-40
2022/04/08 06:03:02;;;;;;;5.32;1.25;;;;;;;;;;5051052;28;20115;-40
2022/04/08 06:05:29;;;;;;;4.40;1.35;;;;;;;;;;5051132;28;20021;-40
2022/04/08 06:07:56;;;;;;;7.28;1.20;;;;;;;;;;5055095;28;20021;-40
2022/04/08 06:10:26;;;;;;;4.00;1.45;;;;;;;;;;5054156;28;20079;-40
2022/04/08 06:12:57;;;;;;;4.18;0.80;;;;;;;;;;5054604;28;20037;-40
2022/04/08 06:15:26;;;;;;;3.53;0.90;;;;;;;;;;5054470;28;20040;-40
2022/04/08 06:17:54;;;;;;;6.18;0.95;;;;;;;;;;5054183;28;20025;-40
2022/04/08 06:20:22;;;;;;;3.35;1.00;;;;;;;;;;5054594;28;20029;-40
2022/04/08 06:22:49;;;;;;;3.90;1.27;;;;;;;;;;5054343;28;20502;-40
2022/04/08 06:25:17;;;;;;;3.83;1.10;;;;;;;;;;5054124;28;20060;-40
2022/04/08 06:27:44;;;;;;;3.90;1.15;;;;;;;;;;5054807;28;20074;-40
2022/04/08 06:30:14;;;;;;;3.78;0.68;;;;;;;;;;5053858;28;20090;-40
2022/04/08 06:32:45;;;;;;;1.95;1.02;;;;;;;;;;5216843;22;20052;-37
2022/04/08 06:35:12;;;;;;;3.70;0.93;;;;;;;;;;5074305;28;20046;-38
2022/04/08 06:37:39;;;;;;;2.78;0.80;;;;;;;;;;5074578;28;20111;-38
2022/04/08 06:40:08;;;;;;;3.40;1.02;;;;;;;;;;5056795;28;20030;-38
2022/04/08 06:42:35;;;;;;;3.50;0.80;;;;;;;;;;5073807;28;20029;-38
2022/04/08 06:45:02;;;;;;;2.90;0.82;;;;;;;;;;5074002;28;20070;-38
2022/04/08 06:47:29;;;;;;;2.05;0.77;;;;;;;;;;5074132;28;20027;-38
2022/04/08 06:49:56;;;;;;;2.38;1.13;;;;;;;;;;5073733;28;20551;-38
2022/04/08 06:52:23;;;;;;;3.40;0.80;;;;;;;;;;5074196;28;20029;-38
2022/04/08 06:54:50;;;;;;;1.63;0.90;;;;;;;;;;5074071;28;20055;-38
2022/04/08 06:57:17;;;;;;;4.65;0.80;;;;;;;;;;5073830;28;20024;-38
2022/04/08 06:59:44;;;;;;;1.60;0.77;;;;;;;;;;5073471;28;20025;-38
2022/04/08 07:02:13;;;;;;;3.60;0.88;;;;;;;;;;5073933;28;20050;-38
2022/04/08 07:04:40;;;;;;;2.45;1.00;;;;;;;;;;5073705;28;20063;-38
2022/04/08 07:07:07;;;;;;;2.13;0.88;;;;;;;;;;5074135;28;20509;-38
2022/04/08 07:09:35;;;;;;;2.00;0.82;;;;;;;;;;5073461;28;20032;-38
2022/04/08 07:12:02;;;;;;;1.98;0.90;;;;;;;;;;5073281;28;20036;-37
2022/04/08 07:14:29;;;;;;;2.15;0.85;;;;;;;;;;5073322;28;20031;-38
2022/04/08 07:16:56;;;;;;;3.17;1.10;;;;;;;;;;5073039;28;20070;-38
2022/04/08 07:19:23;;;;;;;3.50;1.00;;;;;;;;;;5073631;28;20542;-38
2022/04/08 07:21:50;;;;;;;2.05;0.90;;;;;;;;;;5073141;28;20029;-38
2022/04/08 07:24:17;;;;;;;3.53;1.05;;;;;;;;;;5073730;28;20024;-38
2022/04/08 07:26:44;;;;;;;2.13;0.73;;;;;;;;;;5072971;28;20029;-37
2022/04/08 07:29:11;;;;;;;2.55;1.00;;;;;;;;;;5073483;28;20031;-38
2022/04/08 07:31:38;;;;;;;3.30;0.82;;;;;;;;;;5072593;28;20498;-38
2022/04/08 07:34:05;;;;;;;5.13;1.08;;;;;;;;;;5073519;28;20028;-38
2022/04/08 07:36:32;;;;;;;3.15;0.88;;;;;;;;;;5072728;28;20028;-38
2022/04/08 07:38:59;;;;;;;2.85;0.90;;;;;;;;;;5072987;28;20028;-38
2022/04/08 07:41:26;;;;;;;2.30;0.93;;;;;;;;;;5073024;28;20672;-38
2022/04/08 07:43:53;;;;;;;2.60;0.80;;;;;;;;;;5073178;28;20025;-38
2022/04/08 07:46:20;;;;;;;5.50;0.95;;;;;;;;;;5072376;28;20132;-37
2022/04/08 07:48:47;;;;;;;2.65;0.80;;;;;;;;;;5073458;28;20104;-38
2022/04/08 07:51:14;;;;;;;3.83;1.00;;;;;;;;;;5072535;28;20032;-38
2022/04/08 07:53:41;;;;;;;4.05;1.05;;;;;;;;;;5072575;28;20394;-38
2022/04/08 07:56:08;;;;;;;3.47;1.02;;;;;;;;;;5072619;28;20068;-38
2022/04/08 07:58:35;;;;;;;4.28;0.88;;;;;;;;;;5072212;28;20025;-38
2022/04/08 08:01:02;;;;;;;2.80;1.00;;;;;;;;;;5072837;28;20025;-38
2022/04/08 08:03:29;;;;;;;3.50;0.93;;;;;;;;;;5072920;28;20120;-38
2022/04/08 08:05:56;;;;;;;3.65;0.80;;;;;;;;;;5072164;28;20032;-38
2022/04/08 08:08:23;;;;;;;4.78;0.90;;;;;;;;;;5072111;28;20162;-38
2022/04/08 08:10:50;;;;;;;2.22;0.90;;;;;;;;;;5072561;28;20027;-38
2022/04/08 08:13:17;;;;;;;3.80;0.70;;;;;;;;;;5072048;28;20029;-38
2022/04/08 08:15:43;;;;;;;3.28;1.00;;;;;;;;;;5054783;28;20037;-37
2022/04/08 08:18:10;;;;;;;3.00;1.13;;;;;;;;;;5071927;28;20436;-38
2022/04/08 08:20:37;;;;;;;2.28;0.90;;;;;;;;;;5072533;28;20055;-38
2022/04/08 08:23:06;;;;;;;3.92;0.90;;;;;;;;;;5072542;28;20040;-38
2022/04/08 08:25:33;;;;;;;2.45;0.85;;;;;;;;;;5071878;28;20126;-37
2022/04/08 08:28:04;;;;;;;1.52;0.85;;;;;;;;;;5072303;28;20389;-37
2022/04/08 08:30:31;;;;;;;2.92;0.82;;;;;;;;;;5071681;28;20032;-38
2022/04/08 08:32:59;;;;;;;2.80;0.90;;;;;;;;;;5072110;28;20523;-38
2022/04/08 08:35:26;;;;;;;4.40;0.70;;;;;;;;;;5072260;28;20020;-38
2022/04/08 08:37:53;;;;;;;3.60;1.17;;;;;;;;;;5072135;28;20025;-38
2022/04/08 08:40:20;;;;;;;3.03;0.80;;;;;;;;;;5071541;28;20027;-38
2022/04/08 08:42:48;;;;;;;1.55;0.90;;;;;;;;;;5072370;28;20032;-38
2022/04/08 08:45:15;;;;;;;2.88;0.90;;;;;;;;;;5071930;28;20520;-37
2022/04/08 08:47:52;;;;;;;2.35;0.77;;;;;;;;;;5072076;28;20016;-37
2022/04/08 08:50:19;;;;;;;3.70;1.30;;;;;;;;;;5071461;28;20017;-38
2022/04/08 08:52:50;;;;;;;2.53;0.80;;;;;;;;;;5071399;28;20045;-37
2022/04/08 08:55:17;;;;;;;2.15;0.85;;;;;;;;;;5072032;28;20103;-37
2022/04/08 08:57:45;;;;;;;2.63;0.82;;;;;;;;;;5072000;28;20069;-38
2022/04/08 09:00:13;;;;;;;4.15;0.93;;;;;;;;;;5071694;28;20478;-37
2022/04/08 09:02:41;;;;;;;2.08;0.90;;;;;;;;;;5071893;28;20516;-38
2022/04/08 09:05:12;;;;;;;1.52;0.68;;;;;;;;;;5071570;28;20104;-38
2022/04/08 09:07:39;;;;;;;1.75;1.00;;;;;;;;;;5071522;28;20020;-38
2022/04/08 09:10:06;;;;;;;4.28;1.00;;;;;;;;;;5072169;28;20482;-38
2022/04/08 09:12:33;;;;;;;2.53;0.75;;;;;;;;;;5071779;28;20029;-38
2022/04/08 09:15:02;;;;;;;4.90;1.10;;;;;;;;;;5071414;28;20017;-38
2022/04/08 09:17:29;;;;;;;1.55;0.68;;;;;;;;;;5071930;28;20028;-38
2022/04/08 09:19:58;;;;;;;3.42;0.90;;;;;;;;;;5071184;28;20066;-38
2022/04/08 09:22:36;;;;;;;2.22;0.70;;;;;;;;;;5071784;28;20036;-37
2022/04/08 09:25:09;;;;;;;3.65;1.10;;;;;;;;;;5071909;28;20028;-37
2022/04/08 09:27:36;;;;;;;1.90;0.80;;;;;;;;;;5071005;28;20028;-37
2022/04/08 09:30:04;;;;;;;2.38;0.70;;;;;;;;;;5071137;28;20056;-37
2022/04/08 09:32:31;;;;;;;3.00;0.80;;;;;;;;;;5071507;28;20097;-37
2022/04/08 09:34:58;;;;;;;2.58;0.80;;;;;;;;;;5071530;28;20032;-37
2022/04/08 09:37:25;;;;;;;2.70;0.80;;;;;;;;;;5071554;28;20046;-37
2022/04/08 09:40:07;;;;;;;3.08;0.90;;;;;;;;;;5071747;28;20099;-37
2022/04/08 09:42:44;;;;;;;3.72;1.02;;;;;;;;;;5074560;28;20025;-37
2022/04/08 09:45:11;;;;;;;3.20;0.90;;;;;;;;;;5074818;28;20031;-37
2022/04/08 09:47:39;;;;;;;3.85;1.13;;;;;;;;;;5075085;28;20028;-37
2022/04/08 09:50:07;;;;;;;2.22;1.02;;;;;;;;;;5074997;28;20082;-37
2022/04/08 09:52:34;;;;;;;2.92;0.82;;;;;;;;;;5074071;28;20036;-37
2022/04/08 09:55:03;;;;;;;2.67;0.85;;;;;;;;;;5075380;28;20047;-37
2022/04/08 09:57:34;;;;;;;4.28;0.80;;;;;;;;;;5074893;28;20024;-37
2022/04/08 10:00:02;;;;;;;2.35;0.90;;;;;;;;;;5074807;28;20433;-37
2022/04/08 10:02:29;;;;;;;3.28;0.85;;;;;;;;;;5075084;28;20033;-37
2022/04/08 10:04:56;;;;;;;2.35;0.65;;;;;;;;;;5074367;28;20029;-37
2022/04/08 10:07:23;;;;;;;1.40;0.82;;;;;;;;;;5075159;28;20104;-37
2022/04/08 10:10:06;;;;;;;2.55;0.80;;;;;;;;;;5074487;28;20032;-37
2022/04/08 10:12:39;;;;;;;1.33;0.70;;;;;;;;;;5074645;28;20041;-37
2022/04/08 10:15:10;;;;;;;1.63;0.80;;;;;;;;;;5074587;28;20031;-37
2022/04/08 10:17:38;;;;;;;4.35;0.80;;;;;;;;;;5074501;28;20033;-37
2022/04/08 10:20:25;;;;;;;2.50;0.80;;;;;;;;;;5074003;28;20035;-37
2022/04/08 10:22:54;;;;;;;4.30;0.82;;;;;;;;;;5074819;28;20031;-37
2022/04/08 10:25:26;;;;;;;2.08;0.90;;;;;;;;;;5074614;28;20028;-37
2022/04/08 10:27:59;;;;;;;2.10;1.05;;;;;;;;;;5074631;28;20401;-37
2022/04/08 10:30:26;;;;;;;3.10;1.10;;;;;;;;;;5073648;28;20036;-38
2022/04/08 10:33:00;;;;;;;2.78;0.90;;;;;;;;;;5074430;28;20036;-37
2022/04/08 10:35:27;;;;;;;1.77;1.00;;;;;;;;;;5073625;28;20048;-37
2022/04/08 10:37:57;;;;;;;2.00;0.90;;;;;;;;;;5074435;28;20440;-37
2022/04/08 10:40:29;;;;;;;4.22;1.13;;;;;;;;;;5073724;28;20050;-38
2022/04/08 10:42:57;;;;;;;2.42;1.08;;;;;;;;;;5073936;28;20060;-37
2022/04/08 10:45:24;;;;;;;2.97;0.85;;;;;;;;;;5056100;28;20405;-38
2022/04/08 10:47:51;;;;;;;2.35;0.90;;;;;;;;;;5074264;28;20035;-38
2022/04/08 10:50:28;;;;;;;1.98;0.95;;;;;;;;;;5073224;28;20067;-38
2022/04/08 10:53:04;;;;;;;3.80;1.00;;;;;;;;;;5073271;28;20025;-38
2022/04/08 10:55:31;;;;;;;1.95;0.80;;;;;;;;;;5074007;28;20547;-38
2022/04/08 10:57:59;;;;;;;2.72;0.98;;;;;;;;;;5073136;28;20394;-38
2022/04/08 11:00:26;;;;;;;2.08;0.75;;;;;;;;;;5073656;28;20025;-38
2022/04/08 11:02:56;;;;;;;3.22;1.17;;;;;;;;;;5073528;28;20033;-38
2022/04/08 11:05:23;;;;;;;2.50;1.05;;;;;;;;;;5073648;28;20033;-38
2022/04/08 11:07:52;;;;;;;2.88;1.10;;;;;;;;;;5072860;28;20036;-38
2022/04/08 11:10:20;;;;;;;17.35;2.58;;;;;;;;;;5072954;28;20032;-36
2022/04/08 11:12:51;;;;;;;10.30;2.30;;;;;;;;;;5060054;28;20040;-36
2022/04/08 11:15:19;;;;;;;111.30;11.70;;;;;;;;;;5051451;28;20029;-37
2022/04/08 11:17:48;;;;;;;59.20;6.60;;;;;;;;;;5052003;28;20091;-36
2022/04/08 11:20:16;;;;;;;21.95;4.68;;;;;;;;;;5070949;28;20048;-36
2022/04/08 11:22:44;;;;;;;21.83;4.85;;;;;;;;;;5071961;28;20024;-38
2022/04/08 11:25:12;;;;;;;19.05;5.00;;;;;;;;;;5072983;28;20028;-37
2022/04/08 11:27:39;;;;;;;23.65;4.38;;;;;;;;;;5072340;28;20056;-34
2022/04/08 11:30:09;;;;;;;112.18;15.50;;;;;;;;;;5070993;28;20130;-35
2022/04/08 11:32:39;;;;;;;64.28;6.97;;;;;;;;;;5071972;28;20517;-35
2022/04/08 11:35:14;;;;;;;20.05;5.30;;;;;;;;;;5072086;28;20086;-34
2022/04/08 11:37:41;;;;;;;51.92;6.13;;;;;;;;;;5071775;28;20606;-34
2022/04/08 11:40:09;;;;;;;30.33;4.93;;;;;;;;;;5072224;28;20067;-35
2022/04/08 11:42:36;;;;;;;18.73;4.38;;;;;;;;;;5071708;28;20470;-34
2022/04/08 11:45:04;;;;;;;14.00;4.55;;;;;;;;;;5071949;28;20021;-34
2022/04/08 11:47:32;;;;;;;21.80;4.65;;;;;;;;;;5071168;28;20071;-34
2022/04/08 11:50:03;;;;;;;25.08;4.15;;;;;;;;;;5072054;28;20040;-34
2022/04/08 11:52:30;;;;;;;15.07;3.75;;;;;;;;;;5053522;28;20061;-34
2022/04/08 11:55:03;;;;;;;14.27;4.32;;;;;;;;;;5072184;28;20025;-34
2022/04/08 11:57:30;;;;;;;14.70;4.20;;;;;;;;;;5065452;28;20037;-38
2022/04/08 11:59:58;;;;;;;13.77;3.50;;;;;;;;;;5051548;28;20090;-35
2022/04/08 12:02:25;;;;;;;14.85;3.05;;;;;;;;;;5048368;28;20479;-37
2022/04/08 12:04:52;;;;;;;16.30;3.90;;;;;;;;;;5049303;28;20562;-37
2022/04/08 12:07:23;;;;;;;359.15;25.85;;;;;;;;;;5050930;28;20112;-35
2022/04/08 12:09:54;;;;;;;649.50;64.78;;;;;;;;;;5047544;28;20107;-33
2022/04/08 12:12:24;;;;;;;122.53;15.52;;;;;;;;;;5051118;28;20584;-35
2022/04/08 12:14:52;;;;;;;66.43;8.88;;;;;;;;;;5049951;28;20040;-36
2022/04/08 12:17:19;;;;;;;40.58;7.13;;;;;;;;;;5050581;28;20514;-36
2022/04/08 12:19:47;;;;;;;43.13;7.63;;;;;;;;;;5050551;28;20072;-38
2022/04/08 12:22:16;;;;;;;30.70;5.80;;;;;;;;;;5050445;28;20055;-36
2022/04/08 12:24:48;;;;;;;25.08;6.00;;;;;;;;;;5051316;28;20491;-35
2022/04/08 12:27:17;;;;;;;;;;;;;;;;;;5049575;28;20033;-39
2022/04/08 12:29:57;;;;;;;23.52;4.60;;;;;;;;;;5049344;28;19944;-38
2022/04/08 12:32:24;;;;;;;20.98;4.88;;;;;;;;;;5050250;28;20045;-37
2022/04/08 12:34:51;;;;;;;13.07;4.50;;;;;;;;;;5050192;28;20033;-37
2022/04/08 12:37:18;;;;;;;22.30;3.78;;;;;;;;;;5049105;28;20060;-37
2022/04/08 12:39:45;;;;;;;12.13;3.25;;;;;;;;;;5050272;28;20033;-38
2022/04/08 12:42:13;;;;;;;15.35;3.17;;;;;;;;;;5050791;28;20590;-38
2022/04/08 12:44:40;;;;;;;10.27;3.05;;;;;;;;;;5049877;28;20060;-35
2022/04/08 12:47:07;;;;;;;19.20;3.58;;;;;;;;;;5050644;28;20032;-35
2022/04/08 12:49:34;;;;;;;13.90;3.47;;;;;;;;;;5049213;28;20102;-34
2022/04/08 12:52:01;;;;;;;17.38;3.92;;;;;;;;;;5050491;28;20049;-35
2022/04/08 12:54:28;;;;;;;14.63;3.38;;;;;;;;;;5050416;28;20029;-35
2022/04/08 12:56:55;;;;;;;13.52;3.67;;;;;;;;;;5049533;28;20036;-34
2022/04/08 12:59:22;;;;;;;15.02;3.20;;;;;;;;;;5048682;28;20028;-32
2022/04/08 13:01:49;;;;;;;13.95;3.65;;;;;;;;;;5049588;28;20112;-34
2022/04/08 13:04:16;;;;;;;13.57;3.08;;;;;;;;;;5049435;28;20390;-36
2022/04/08 13:06:44;;;;;;;21.10;3.63;;;;;;;;;;5049123;28;20589;-37
2022/04/08 13:09:12;;;;;;;17.83;3.95;;;;;;;;;;5048100;28;20037;-38
2022/04/08 13:11:38;;;;;;;13.48;3.33;;;;;;;;;;5040728;28;20047;-38
2022/04/08 13:14:06;;;;;;;16.63;3.58;;;;;;;;;;5050730;28;20044;-35
2022/04/08 13:16:33;;;;;;;17.95;3.50;;;;;;;;;;5053797;28;20098;-35
2022/04/08 13:19:00;;;;;;;17.67;4.15;;;;;;;;;;5053627;28;20040;-36
2022/04/08 13:21:28;;;;;;;25.52;5.03;;;;;;;;;;5052654;28;20057;-36
2022/04/08 13:23:54;;;;;;;17.50;4.20;;;;;;;;;;5053082;28;20036;-37
2022/04/08 13:26:22;;;;;;;24.42;3.78;;;;;;;;;;5053898;28;20386;-36
2022/04/08 13:28:48;;;;;;;19.23;2.90;;;;;;;;;;5054253;28;20508;-36
2022/04/08 13:31:15;;;;;;;22.30;3.80;;;;;;;;;;5052800;28;20410;-36
2022/04/08 13:33:42;;;;;;;20.85;4.20;;;;;;;;;;5053788;28;20044;-39
2022/04/08 13:36:09;;;;;;;19.00;3.78;;;;;;;;;;5053865;28;20103;-35
2022/04/08 13:38:36;;;;;;;19.25;3.88;;;;;;;;;;5054080;28;20768;-35
2022/04/08 13:41:03;;;;;;;28.20;3.90;;;;;;;;;;5052270;28;20033;-34
2022/04/08 13:43:30;;;;;;;23.52;3.50;;;;;;;;;;5053745;28;20037;-35
2022/04/08 13:45:57;;;;;;;19.38;3.58;;;;;;;;;;5053138;28;20444;-34
2022/04/08 13:48:24;;;;;;;20.27;3.50;;;;;;;;;;5053904;28;20037;-35
2022/04/08 13:50:51;;;;;;;19.63;3.65;;;;;;;;;;5053589;28;20032;-35
2022/04/08 13:53:18;;;;;;;15.05;2.83;;;;;;;;;;5052403;28;20316;-34
2022/04/08 13:55:45;;;;;;;22.95;2.95;;;;;;;;;;5053740;28;20104;-35
2022/04/08 13:58:12;;;;;;;20.08;3.50;;;;;;;;;;5052558;28;20087;-35
2022/04/08 14:00:39;;;;;;;17.38;3.40;;;;;;;;;;5053814;28;20032;-36
2022/04/08 14:03:07;;;;;;;14.43;3.05;;;;;;;;;;5052332;28;20033;-36
2022/04/08 14:05:34;;;;;;;17.80;3.47;;;;;;;;;;5052712;28;20482;-36
2022/04/08 14:08:01;;;;;;;26.10;3.58;;;;;;;;;;5053633;28;20143;-36
2022/04/08 14:10:28;;;;;;;74.57;6.43;;;;;;;;;;5053102;28;20029;-36
2022/04/08 14:12:55;;;;;;;30.45;3.83;;;;;;;;;;5052433;28;20037;-36
2022/04/08 14:15:22;;;;;;;25.52;4.20;;;;;;;;;;5051449;28;20029;-34
2022/04/08 14:17:49;;;;;;;32.72;4.05;;;;;;;;;;5053269;28;20120;-35
2022/04/08 14:20:17;;;;;;;13.88;3.13;;;;;;;;;;5052813;28;20086;-36
2022/04/08 14:22:44;;;;;;;29.15;3.42;;;;;;;;;;5053183;28;20060;-35
2022/04/08 14:25:11;;;;;;;24.23;3.80;;;;;;;;;;5052421;28;20048;-37
2022/04/08 14:27:38;;;;;;;14.95;2.55;;;;;;;;;;5043516;28;20453;-35
2022/04/08 14:30:06;;;;;;;24.63;3.13;;;;;;;;;;5051512;28;20486;-39
2022/04/08 14:32:33;;;;;;;15.88;2.90;;;;;;;;;;5051585;28;20057;-36
2022/04/08 14:35:01;;;;;;;32.10;3.55;;;;;;;;;;5051014;28;20048;-36
2022/04/08 14:37:30;;;;;;;21.25;3.03;;;;;;;;;;5053152;28;20025;-36
2022/04/08 14:39:57;;;;;;;39.30;3.13;;;;;;;;;;5052185;28;20047;-38